Portada
METAR-TAF:

METAR-TAF

Aeroports :

Kiritimati, Kiribati

latitud: 01-59N, longitud: 157-29W, altitud: 3 m

Observació

L'informe es va fer fa 48 minuts, a les 11:00 UTC
Vent 8 kt del Est
Temperatura 26°C
Humitat 84%
Pressió 1009 hPa
Visibilitat 10 km o més
Escasses núvols a una alçada de 1800 ft, Cumulus congestus.

METAR: PLCH 051100Z 10008KT 9999 FEW018TCU 26/23 Q1009

Hora: 01:48 (11:48 UTC)

Pronòstic

L'informe es va fer fa 33 minuts, a les 11:15 UTC
Pronòstic vàlid del 05 a les 12 UTC al 06 a les 12 UTC
Vent 9 kt del Est
Visibilitat 10 km o més
Escasses núvols a una alçada de 1800 ft

TAF: PLCH 051115Z 0512/0612 10009KT 9999 FEW018

Observacions i pronòstics meteorològics de més de 4000 aeroports (METAR i TAF).

Les estacions disponibles són els punts grocs i vermells al mapa.

Posi el ratolí al punt desitjat per veure el nom de l'estació.

Feu clic per veure les observacions i els pronòstics meteorològics.

Per canviar el mapa: feu clic els botons verds amb una creu de color negre per apropar; al botó verd amb un guió per allunyar la imatge; o en les fletxes verdes per a mapes adjacents.


METAR-TAF: